sensor_id;sensor_type;location;lat;lon;timestamp;P1;durP1;ratioP1;P2;durP2;ratioP2
59097;SDS011;44883;52.760;6.610;2022-07-21T00:01:29;14.18;;;11.05;;
59097;SDS011;44883;52.760;6.610;2022-07-21T00:03:54;14.13;;;12.30;;
59097;SDS011;44883;52.760;6.610;2022-07-21T00:06:20;12.55;;;10.85;;
59097;SDS011;44883;52.760;6.610;2022-07-21T00:08:46;12.88;;;11.43;;
59097;SDS011;44883;52.760;6.610;2022-07-21T00:11:11;12.73;;;10.90;;
59097;SDS011;44883;52.760;6.610;2022-07-21T00:13:37;13.52;;;11.43;;
59097;SDS011;44883;52.760;6.610;2022-07-21T00:16:03;16.52;;;12.02;;
59097;SDS011;44883;52.760;6.610;2022-07-21T00:18:29;16.67;;;14.18;;
59097;SDS011;44883;52.760;6.610;2022-07-21T00:20:55;17.38;;;14.43;;
59097;SDS011;44883;52.760;6.610;2022-07-21T00:23:24;18.42;;;14.55;;
59097;SDS011;44883;52.760;6.610;2022-07-21T00:25:51;14.75;;;13.18;;
59097;SDS011;44883;52.760;6.610;2022-07-21T00:28:17;16.60;;;12.73;;
59097;SDS011;44883;52.760;6.610;2022-07-21T00:30:43;15.68;;;13.63;;
59097;SDS011;44883;52.760;6.610;2022-07-21T00:33:09;16.35;;;13.93;;
59097;SDS011;44883;52.760;6.610;2022-07-21T00:35:35;15.93;;;14.23;;
59097;SDS011;44883;52.760;6.610;2022-07-21T00:38:00;15.95;;;13.65;;
59097;SDS011;44883;52.760;6.610;2022-07-21T00:40:26;17.85;;;15.07;;
59097;SDS011;44883;52.760;6.610;2022-07-21T00:42:52;16.90;;;15.18;;
59097;SDS011;44883;52.760;6.610;2022-07-21T00:45:18;19.33;;;15.32;;
59097;SDS011;44883;52.760;6.610;2022-07-21T00:47:44;17.70;;;15.40;;
59097;SDS011;44883;52.760;6.610;2022-07-21T00:50:12;17.90;;;15.85;;
59097;SDS011;44883;52.760;6.610;2022-07-21T00:52:39;16.10;;;14.50;;
59097;SDS011;44883;52.760;6.610;2022-07-21T00:55:05;16.52;;;14.35;;
59097;SDS011;44883;52.760;6.610;2022-07-21T00:57:32;20.35;;;17.10;;
59097;SDS011;44883;52.760;6.610;2022-07-21T00:59:57;18.17;;;16.27;;
59097;SDS011;44883;52.760;6.610;2022-07-21T01:02:23;19.63;;;17.13;;
59097;SDS011;44883;52.760;6.610;2022-07-21T01:04:51;16.95;;;15.25;;
59097;SDS011;44883;52.760;6.610;2022-07-21T01:07:17;17.27;;;15.02;;
59097;SDS011;44883;52.760;6.610;2022-07-21T01:09:44;17.05;;;15.35;;
59097;SDS011;44883;52.760;6.610;2022-07-21T01:12:10;19.30;;;16.52;;
59097;SDS011;44883;52.760;6.610;2022-07-21T01:14:36;17.77;;;15.88;;
59097;SDS011;44883;52.760;6.610;2022-07-21T01:17:02;16.80;;;14.52;;
59097;SDS011;44883;52.760;6.610;2022-07-21T01:19:29;17.95;;;16.05;;
59097;SDS011;44883;52.760;6.610;2022-07-21T01:21:55;16.67;;;14.10;;
59097;SDS011;44883;52.760;6.610;2022-07-21T01:24:21;16.92;;;15.20;;
59097;SDS011;44883;52.760;6.610;2022-07-21T01:26:50;16.02;;;14.00;;
59097;SDS011;44883;52.760;6.610;2022-07-21T01:29:18;18.38;;;16.42;;
59097;SDS011;44883;52.760;6.610;2022-07-21T01:31:45;19.92;;;17.05;;
59097;SDS011;44883;52.760;6.610;2022-07-21T01:34:13;18.88;;;15.68;;
59097;SDS011;44883;52.760;6.610;2022-07-21T01:36:39;19.35;;;16.75;;
59097;SDS011;44883;52.760;6.610;2022-07-21T01:39:05;20.30;;;17.27;;
59097;SDS011;44883;52.760;6.610;2022-07-21T01:41:50;18.13;;;16.27;;
59097;SDS011;44883;52.760;6.610;2022-07-21T01:44:16;22.88;;;19.27;;
59097;SDS011;44883;52.760;6.610;2022-07-21T01:46:43;22.33;;;18.35;;
59097;SDS011;44883;52.760;6.610;2022-07-21T01:49:12;20.33;;;18.10;;
59097;SDS011;44883;52.760;6.610;2022-07-21T01:51:39;18.15;;;16.25;;
59097;SDS011;44883;52.760;6.610;2022-07-21T01:54:06;20.00;;;17.77;;
59097;SDS011;44883;52.760;6.610;2022-07-21T01:56:34;19.75;;;17.77;;
59097;SDS011;44883;52.760;6.610;2022-07-21T01:59:00;18.88;;;16.98;;
59097;SDS011;44883;52.760;6.610;2022-07-21T02:01:26;19.52;;;17.45;;
59097;SDS011;44883;52.760;6.610;2022-07-21T02:03:54;20.73;;;16.75;;
59097;SDS011;44883;52.760;6.610;2022-07-21T02:06:20;22.13;;;19.83;;
59097;SDS011;44883;52.760;6.610;2022-07-21T02:08:46;19.30;;;17.25;;
59097;SDS011;44883;52.760;6.610;2022-07-21T02:11:13;22.13;;;19.70;;
59097;SDS011;44883;52.760;6.610;2022-07-21T02:13:38;21.98;;;19.63;;
59097;SDS011;44883;52.760;6.610;2022-07-21T02:16:05;24.45;;;21.20;;
59097;SDS011;44883;52.760;6.610;2022-07-21T02:18:31;24.30;;;20.40;;
59097;SDS011;44883;52.760;6.610;2022-07-21T02:20:57;21.60;;;19.30;;
59097;SDS011;44883;52.760;6.610;2022-07-21T02:23:23;22.90;;;19.08;;
59097;SDS011;44883;52.760;6.610;2022-07-21T02:25:50;21.23;;;18.50;;
59097;SDS011;44883;52.760;6.610;2022-07-21T02:28:17;21.00;;;18.88;;
59097;SDS011;44883;52.760;6.610;2022-07-21T02:30:44;24.73;;;22.08;;
59097;SDS011;44883;52.760;6.610;2022-07-21T02:33:10;22.58;;;19.58;;
59097;SDS011;44883;52.760;6.610;2022-07-21T02:35:36;25.83;;;22.58;;
59097;SDS011;44883;52.760;6.610;2022-07-21T02:38:02;24.63;;;21.42;;
59097;SDS011;44883;52.760;6.610;2022-07-21T02:40:28;21.88;;;19.48;;
59097;SDS011;44883;52.760;6.610;2022-07-21T02:42:53;20.20;;;18.20;;
59097;SDS011;44883;52.760;6.610;2022-07-21T02:45:19;20.90;;;18.80;;
59097;SDS011;44883;52.760;6.610;2022-07-21T02:47:49;25.08;;;21.75;;
59097;SDS011;44883;52.760;6.610;2022-07-21T02:50:15;21.65;;;19.35;;
59097;SDS011;44883;52.760;6.610;2022-07-21T02:52:42;27.52;;;23.48;;
59097;SDS011;44883;52.760;6.610;2022-07-21T02:55:07;25.88;;;22.00;;
59097;SDS011;44883;52.760;6.610;2022-07-21T02:57:34;27.83;;;23.77;;
59097;SDS011;44883;52.760;6.610;2022-07-21T02:59:59;29.20;;;25.77;;
59097;SDS011;44883;52.760;6.610;2022-07-21T03:02:25;26.23;;;23.48;;
59097;SDS011;44883;52.760;6.610;2022-07-21T03:04:50;26.80;;;24.10;;
59097;SDS011;44883;52.760;6.610;2022-07-21T03:07:16;26.55;;;23.75;;
59097;SDS011;44883;52.760;6.610;2022-07-21T03:09:41;26.27;;;23.67;;
59097;SDS011;44883;52.760;6.610;2022-07-21T03:12:07;25.40;;;22.85;;
59097;SDS011;44883;52.760;6.610;2022-07-21T03:14:33;26.83;;;23.95;;
59097;SDS011;44883;52.760;6.610;2022-07-21T03:16:58;26.95;;;24.20;;
59097;SDS011;44883;52.760;6.610;2022-07-21T03:19:25;26.75;;;24.05;;
59097;SDS011;44883;52.760;6.610;2022-07-21T03:21:51;30.67;;;27.60;;
59097;SDS011;44883;52.760;6.610;2022-07-21T03:24:17;29.30;;;26.50;;
59097;SDS011;44883;52.760;6.610;2022-07-21T03:26:42;29.58;;;26.88;;
59097;SDS011;44883;52.760;6.610;2022-07-21T03:29:08;31.23;;;28.45;;
59097;SDS011;44883;52.760;6.610;2022-07-21T03:31:34;30.40;;;27.65;;
59097;SDS011;44883;52.760;6.610;2022-07-21T03:34:00;28.75;;;26.30;;
59097;SDS011;44883;52.760;6.610;2022-07-21T03:36:25;34.67;;;31.33;;
59097;SDS011;44883;52.760;6.610;2022-07-21T03:38:51;32.65;;;29.83;;
59097;SDS011;44883;52.760;6.610;2022-07-21T03:41:17;32.00;;;29.27;;
59097;SDS011;44883;52.760;6.610;2022-07-21T03:43:42;32.85;;;29.80;;
59097;SDS011;44883;52.760;6.610;2022-07-21T03:46:08;32.00;;;29.10;;
59097;SDS011;44883;52.760;6.610;2022-07-21T03:48:33;29.35;;;26.75;;
59097;SDS011;44883;52.760;6.610;2022-07-21T03:50:59;29.05;;;26.45;;
59097;SDS011;44883;52.760;6.610;2022-07-21T03:53:24;29.67;;;27.08;;
59097;SDS011;44883;52.760;6.610;2022-07-21T03:55:50;29.95;;;27.10;;
59097;SDS011;44883;52.760;6.610;2022-07-21T03:58:15;31.10;;;28.20;;
59097;SDS011;44883;52.760;6.610;2022-07-21T04:00:42;31.38;;;28.38;;
59097;SDS011;44883;52.760;6.610;2022-07-21T04:03:10;29.17;;;26.73;;
59097;SDS011;44883;52.760;6.610;2022-07-21T04:05:37;31.58;;;28.73;;
59097;SDS011;44883;52.760;6.610;2022-07-21T04:08:04;29.92;;;27.27;;
59097;SDS011;44883;52.760;6.610;2022-07-21T04:10:31;27.75;;;25.35;;
59097;SDS011;44883;52.760;6.610;2022-07-21T04:13:00;27.75;;;25.25;;
59097;SDS011;44883;52.760;6.610;2022-07-21T04:15:26;29.15;;;26.55;;
59097;SDS011;44883;52.760;6.610;2022-07-21T04:17:52;29.60;;;27.13;;
59097;SDS011;44883;52.760;6.610;2022-07-21T04:20:19;29.98;;;27.15;;
59097;SDS011;44883;52.760;6.610;2022-07-21T04:22:45;29.98;;;27.27;;
59097;SDS011;44883;52.760;6.610;2022-07-21T04:25:12;31.55;;;28.58;;
59097;SDS011;44883;52.760;6.610;2022-07-21T04:27:38;30.58;;;27.67;;
59097;SDS011;44883;52.760;6.610;2022-07-21T04:30:05;30.08;;;27.48;;
59097;SDS011;44883;52.760;6.610;2022-07-21T04:32:32;30.63;;;27.77;;
59097;SDS011;44883;52.760;6.610;2022-07-21T04:34:58;29.25;;;26.60;;
59097;SDS011;44883;52.760;6.610;2022-07-21T04:37:24;29.75;;;27.15;;
59097;SDS011;44883;52.760;6.610;2022-07-21T04:39:49;30.08;;;27.38;;
59097;SDS011;44883;52.760;6.610;2022-07-21T04:42:15;29.48;;;26.83;;
59097;SDS011;44883;52.760;6.610;2022-07-21T04:44:40;31.77;;;28.75;;
59097;SDS011;44883;52.760;6.610;2022-07-21T04:47:06;32.72;;;29.52;;
59097;SDS011;44883;52.760;6.610;2022-07-21T04:49:32;31.58;;;28.67;;
59097;SDS011;44883;52.760;6.610;2022-07-21T04:51:57;30.45;;;27.55;;
59097;SDS011;44883;52.760;6.610;2022-07-21T04:54:23;32.92;;;30.00;;
59097;SDS011;44883;52.760;6.610;2022-07-21T04:56:48;32.00;;;29.20;;
59097;SDS011;44883;52.760;6.610;2022-07-21T04:59:14;35.83;;;32.65;;
59097;SDS011;44883;52.760;6.610;2022-07-21T05:01:40;35.47;;;32.33;;
59097;SDS011;44883;52.760;6.610;2022-07-21T05:04:05;36.53;;;33.25;;
59097;SDS011;44883;52.760;6.610;2022-07-21T05:06:32;34.90;;;31.83;;
59097;SDS011;44883;52.760;6.610;2022-07-21T05:08:58;36.47;;;33.17;;
59097;SDS011;44883;52.760;6.610;2022-07-21T05:11:24;37.67;;;34.35;;
59097;SDS011;44883;52.760;6.610;2022-07-21T05:13:50;34.38;;;31.35;;
59097;SDS011;44883;52.760;6.610;2022-07-21T05:16:15;38.53;;;35.03;;
59097;SDS011;44883;52.760;6.610;2022-07-21T05:18:41;34.22;;;31.02;;
59097;SDS011;44883;52.760;6.610;2022-07-21T05:21:07;33.13;;;30.23;;
59097;SDS011;44883;52.760;6.610;2022-07-21T05:23:33;33.55;;;30.65;;
59097;SDS011;44883;52.760;6.610;2022-07-21T05:25:58;32.17;;;29.33;;
59097;SDS011;44883;52.760;6.610;2022-07-21T05:28:24;31.85;;;28.92;;
59097;SDS011;44883;52.760;6.610;2022-07-21T05:30:51;31.73;;;28.92;;
59097;SDS011;44883;52.760;6.610;2022-07-21T05:33:17;31.40;;;28.60;;
59097;SDS011;44883;52.760;6.610;2022-07-21T05:35:42;30.27;;;27.48;;
59097;SDS011;44883;52.760;6.610;2022-07-21T05:38:08;28.95;;;26.25;;
59097;SDS011;44883;52.760;6.610;2022-07-21T05:40:33;29.85;;;27.15;;
59097;SDS011;44883;52.760;6.610;2022-07-21T05:42:59;29.10;;;26.55;;
59097;SDS011;44883;52.760;6.610;2022-07-21T05:45:24;27.85;;;25.33;;
59097;SDS011;44883;52.760;6.610;2022-07-21T05:47:50;26.65;;;24.00;;
59097;SDS011;44883;52.760;6.610;2022-07-21T05:50:16;25.55;;;23.25;;
59097;SDS011;44883;52.760;6.610;2022-07-21T05:52:41;27.50;;;24.90;;
59097;SDS011;44883;52.760;6.610;2022-07-21T05:55:07;24.52;;;22.35;;
59097;SDS011;44883;52.760;6.610;2022-07-21T05:57:33;24.48;;;22.30;;
59097;SDS011;44883;52.760;6.610;2022-07-21T05:59:59;22.33;;;20.23;;
59097;SDS011;44883;52.760;6.610;2022-07-21T06:02:25;22.00;;;20.10;;
59097;SDS011;44883;52.760;6.610;2022-07-21T06:04:51;22.33;;;20.35;;
59097;SDS011;44883;52.760;6.610;2022-07-21T06:07:17;22.38;;;20.38;;
59097;SDS011;44883;52.760;6.610;2022-07-21T06:09:43;22.52;;;20.63;;
59097;SDS011;44883;52.760;6.610;2022-07-21T06:12:08;23.15;;;21.10;;
59097;SDS011;44883;52.760;6.610;2022-07-21T06:14:34;23.33;;;21.42;;
59097;SDS011;44883;52.760;6.610;2022-07-21T06:17:00;24.40;;;22.20;;
59097;SDS011;44883;52.760;6.610;2022-07-21T06:19:25;24.27;;;22.08;;
59097;SDS011;44883;52.760;6.610;2022-07-21T06:21:51;24.15;;;22.15;;
59097;SDS011;44883;52.760;6.610;2022-07-21T06:24:17;25.48;;;23.17;;
59097;SDS011;44883;52.760;6.610;2022-07-21T06:26:44;28.20;;;25.67;;
59097;SDS011;44883;52.760;6.610;2022-07-21T06:29:10;26.92;;;24.58;;
59097;SDS011;44883;52.760;6.610;2022-07-21T06:31:35;25.58;;;23.30;;
59097;SDS011;44883;52.760;6.610;2022-07-21T06:34:01;27.92;;;25.42;;
59097;SDS011;44883;52.760;6.610;2022-07-21T06:36:27;27.95;;;25.42;;
59097;SDS011;44883;52.760;6.610;2022-07-21T06:38:52;29.80;;;27.08;;
59097;SDS011;44883;52.760;6.610;2022-07-21T06:41:18;28.83;;;26.15;;
59097;SDS011;44883;52.760;6.610;2022-07-21T06:43:43;28.88;;;26.30;;
59097;SDS011;44883;52.760;6.610;2022-07-21T06:46:09;29.17;;;26.67;;
59097;SDS011;44883;52.760;6.610;2022-07-21T06:48:35;29.02;;;26.38;;
59097;SDS011;44883;52.760;6.610;2022-07-21T06:51:00;29.77;;;27.08;;
59097;SDS011;44883;52.760;6.610;2022-07-21T06:53:26;31.20;;;28.50;;
59097;SDS011;44883;52.760;6.610;2022-07-21T06:55:52;30.52;;;27.83;;
59097;SDS011;44883;52.760;6.610;2022-07-21T06:58:19;32.28;;;29.38;;
59097;SDS011;44883;52.760;6.610;2022-07-21T07:00:46;32.08;;;29.27;;
59097;SDS011;44883;52.760;6.610;2022-07-21T07:03:13;32.45;;;29.63;;
59097;SDS011;44883;52.760;6.610;2022-07-21T07:05:40;32.30;;;29.40;;
59097;SDS011;44883;52.760;6.610;2022-07-21T07:08:06;30.40;;;27.75;;
59097;SDS011;44883;52.760;6.610;2022-07-21T07:10:31;32.75;;;29.85;;
59097;SDS011;44883;52.760;6.610;2022-07-21T07:12:57;33.25;;;30.25;;
59097;SDS011;44883;52.760;6.610;2022-07-21T07:15:23;34.28;;;31.27;;
59097;SDS011;44883;52.760;6.610;2022-07-21T07:17:50;32.08;;;29.27;;
59097;SDS011;44883;52.760;6.610;2022-07-21T07:20:16;33.28;;;30.38;;
59097;SDS011;44883;52.760;6.610;2022-07-21T07:22:42;32.40;;;29.27;;
59097;SDS011;44883;52.760;6.610;2022-07-21T07:25:08;31.85;;;28.85;;
59097;SDS011;44883;52.760;6.610;2022-07-21T07:27:34;31.15;;;28.33;;
59097;SDS011;44883;52.760;6.610;2022-07-21T07:30:00;30.63;;;27.75;;
59097;SDS011;44883;52.760;6.610;2022-07-21T07:32:26;28.48;;;25.98;;
59097;SDS011;44883;52.760;6.610;2022-07-21T07:34:51;28.30;;;25.73;;
59097;SDS011;44883;52.760;6.610;2022-07-21T07:37:17;28.52;;;26.02;;
59097;SDS011;44883;52.760;6.610;2022-07-21T07:39:43;27.33;;;25.02;;
59097;SDS011;44883;52.760;6.610;2022-07-21T07:42:08;27.00;;;24.73;;
59097;SDS011;44883;52.760;6.610;2022-07-21T07:44:34;27.48;;;25.02;;
59097;SDS011;44883;52.760;6.610;2022-07-21T07:47:00;26.95;;;24.63;;
59097;SDS011;44883;52.760;6.610;2022-07-21T07:49:29;28.35;;;26.05;;
59097;SDS011;44883;52.760;6.610;2022-07-21T07:51:55;29.20;;;26.58;;
59097;SDS011;44883;52.760;6.610;2022-07-21T07:54:21;29.50;;;26.92;;
59097;SDS011;44883;52.760;6.610;2022-07-21T07:56:47;29.35;;;26.95;;
59097;SDS011;44883;52.760;6.610;2022-07-21T07:59:13;28.58;;;26.05;;
59097;SDS011;44883;52.760;6.610;2022-07-21T08:01:39;28.33;;;25.73;;
59097;SDS011;44883;52.760;6.610;2022-07-21T08:04:04;26.45;;;24.20;;
59097;SDS011;44883;52.760;6.610;2022-07-21T08:06:30;27.63;;;25.30;;
59097;SDS011;44883;52.760;6.610;2022-07-21T08:08:55;27.38;;;25.08;;
59097;SDS011;44883;52.760;6.610;2022-07-21T08:11:21;27.55;;;25.17;;
59097;SDS011;44883;52.760;6.610;2022-07-21T08:13:47;29.38;;;26.88;;
59097;SDS011;44883;52.760;6.610;2022-07-21T08:16:13;28.05;;;25.73;;
59097;SDS011;44883;52.760;6.610;2022-07-21T08:18:40;27.65;;;25.05;;
59097;SDS011;44883;52.760;6.610;2022-07-21T08:21:07;27.88;;;25.38;;
59097;SDS011;44883;52.760;6.610;2022-07-21T08:23:33;28.85;;;26.15;;
59097;SDS011;44883;52.760;6.610;2022-07-21T08:25:58;28.27;;;25.77;;
59097;SDS011;44883;52.760;6.610;2022-07-21T08:28:24;29.20;;;26.60;;
59097;SDS011;44883;52.760;6.610;2022-07-21T08:30:50;29.30;;;26.70;;
59097;SDS011;44883;52.760;6.610;2022-07-21T08:33:15;28.23;;;25.77;;
59097;SDS011;44883;52.760;6.610;2022-07-21T08:35:41;28.90;;;26.27;;
59097;SDS011;44883;52.760;6.610;2022-07-21T08:38:07;28.48;;;26.02;;
59097;SDS011;44883;52.760;6.610;2022-07-21T08:40:37;30.83;;;28.10;;
59097;SDS011;44883;52.760;6.610;2022-07-21T08:43:05;29.15;;;26.50;;
59097;SDS011;44883;52.760;6.610;2022-07-21T08:45:33;26.95;;;24.55;;
59097;SDS011;44883;52.760;6.610;2022-07-21T08:47:59;26.05;;;23.70;;
59097;SDS011;44883;52.760;6.610;2022-07-21T08:50:30;24.77;;;22.67;;
59097;SDS011;44883;52.760;6.610;2022-07-21T08:52:57;26.88;;;24.27;;
59097;SDS011;44883;52.760;6.610;2022-07-21T08:55:23;28.58;;;25.83;;
59097;SDS011;44883;52.760;6.610;2022-07-21T08:57:49;28.85;;;26.25;;
59097;SDS011;44883;52.760;6.610;2022-07-21T09:00:15;26.73;;;24.23;;
59097;SDS011;44883;52.760;6.610;2022-07-21T09:02:41;24.88;;;22.67;;
59097;SDS011;44883;52.760;6.610;2022-07-21T09:05:07;21.60;;;19.67;;
59097;SDS011;44883;52.760;6.610;2022-07-21T09:07:51;20.77;;;18.83;;
59097;SDS011;44883;52.760;6.610;2022-07-21T09:10:25;23.23;;;21.13;;
59097;SDS011;44883;52.760;6.610;2022-07-21T09:13:03;22.52;;;20.50;;
59097;SDS011;44883;52.760;6.610;2022-07-21T09:15:31;23.20;;;21.10;;
59097;SDS011;44883;52.760;6.610;2022-07-21T09:18:05;24.10;;;21.95;;
59097;SDS011;44883;52.760;6.610;2022-07-21T09:20:36;24.20;;;22.00;;
59097;SDS011;44883;52.760;6.610;2022-07-21T09:23:14;23.58;;;21.17;;
59097;SDS011;44883;52.760;6.610;2022-07-21T09:25:42;24.13;;;21.92;;
59097;SDS011;44883;52.760;6.610;2022-07-21T09:36:15;26.75;;;24.15;;
59097;SDS011;44883;52.760;6.610;2022-07-21T09:38:50;25.88;;;23.48;;
59097;SDS011;44883;52.760;6.610;2022-07-21T09:41:22;29.38;;;26.65;;
59097;SDS011;44883;52.760;6.610;2022-07-21T09:43:50;28.00;;;25.40;;
59097;SDS011;44883;52.760;6.610;2022-07-21T09:46:24;28.52;;;25.92;;
59097;SDS011;44883;52.760;6.610;2022-07-21T09:48:53;29.27;;;26.52;;
59097;SDS011;44883;52.760;6.610;2022-07-21T09:53:55;30.92;;;27.92;;
59097;SDS011;44883;52.760;6.610;2022-07-21T09:56:38;29.27;;;26.33;;
59097;SDS011;44883;52.760;6.610;2022-07-21T09:59:06;29.55;;;26.83;;
59097;SDS011;44883;52.760;6.610;2022-07-21T10:01:33;31.25;;;28.45;;
59097;SDS011;44883;52.760;6.610;2022-07-21T10:04:01;31.67;;;28.67;;
59097;SDS011;44883;52.760;6.610;2022-07-21T10:06:34;30.83;;;27.85;;
59097;SDS011;44883;52.760;6.610;2022-07-21T10:09:04;31.40;;;28.60;;
59097;SDS011;44883;52.760;6.610;2022-07-21T10:11:33;31.40;;;28.50;;
59097;SDS011;44883;52.760;6.610;2022-07-21T10:13:58;31.73;;;28.75;;
59097;SDS011;44883;52.760;6.610;2022-07-21T10:16:25;31.80;;;28.85;;
59097;SDS011;44883;52.760;6.610;2022-07-21T10:19:02;32.95;;;29.95;;
59097;SDS011;44883;52.760;6.610;2022-07-21T10:21:51;32.70;;;29.58;;
59097;SDS011;44883;52.760;6.610;2022-07-21T10:24:27;33.50;;;30.42;;
59097;SDS011;44883;52.760;6.610;2022-07-21T10:27:07;33.50;;;30.40;;
59097;SDS011;44883;52.760;6.610;2022-07-21T10:29:47;32.47;;;29.38;;
59097;SDS011;44883;52.760;6.610;2022-07-21T10:32:23;31.23;;;28.23;;
59097;SDS011;44883;52.760;6.610;2022-07-21T10:34:52;29.48;;;26.75;;
59097;SDS011;44883;52.760;6.610;2022-07-21T10:40:03;28.17;;;25.50;;
59097;SDS011;44883;52.760;6.610;2022-07-21T10:42:29;28.65;;;26.15;;
59097;SDS011;44883;52.760;6.610;2022-07-21T10:44:55;29.45;;;26.67;;
59097;SDS011;44883;52.760;6.610;2022-07-21T10:47:22;31.23;;;28.17;;
59097;SDS011;44883;52.760;6.610;2022-07-21T10:49:57;31.52;;;28.45;;
59097;SDS011;44883;52.760;6.610;2022-07-21T10:57:39;30.27;;;27.30;;
59097;SDS011;44883;52.760;6.610;2022-07-21T11:02:55;27.30;;;24.67;;
59097;SDS011;44883;52.760;6.610;2022-07-21T11:05:23;26.20;;;23.80;;
59097;SDS011;44883;52.760;6.610;2022-07-21T11:10:43;26.33;;;23.98;;
59097;SDS011;44883;52.760;6.610;2022-07-21T11:13:14;26.48;;;24.08;;
59097;SDS011;44883;52.760;6.610;2022-07-21T11:18:18;26.80;;;24.50;;
59097;SDS011;44883;52.760;6.610;2022-07-21T11:21:08;28.05;;;25.38;;
59097;SDS011;44883;52.760;6.610;2022-07-21T11:23:53;30.40;;;27.40;;
59097;SDS011;44883;52.760;6.610;2022-07-21T11:26:23;28.48;;;25.92;;
59097;SDS011;44883;52.760;6.610;2022-07-21T11:29:02;31.05;;;28.10;;
59097;SDS011;44883;52.760;6.610;2022-07-21T11:31:32;28.73;;;26.02;;
59097;SDS011;44883;52.760;6.610;2022-07-21T11:34:10;28.65;;;25.95;;
59097;SDS011;44883;52.760;6.610;2022-07-21T11:36:37;29.48;;;26.60;;
59097;SDS011;44883;52.760;6.610;2022-07-21T11:39:04;30.38;;;27.65;;
59097;SDS011;44883;52.760;6.610;2022-07-21T11:41:31;30.88;;;27.88;;
59097;SDS011;44883;52.760;6.610;2022-07-21T11:43:58;30.88;;;28.00;;
59097;SDS011;44883;52.760;6.610;2022-07-21T11:46:23;31.85;;;28.90;;
59097;SDS011;44883;52.760;6.610;2022-07-21T11:48:59;31.65;;;28.95;;
59097;SDS011;44883;52.760;6.610;2022-07-21T11:51:26;31.10;;;28.30;;
59097;SDS011;44883;52.760;6.610;2022-07-21T11:53:52;31.35;;;28.55;;
59097;SDS011;44883;52.760;6.610;2022-07-21T11:56:17;30.55;;;27.65;;
59097;SDS011;44883;52.760;6.610;2022-07-21T11:58:43;29.52;;;26.92;;
59097;SDS011;44883;52.760;6.610;2022-07-21T12:01:09;26.23;;;23.83;;
59097;SDS011;44883;52.760;6.610;2022-07-21T12:03:45;23.15;;;21.05;;
59097;SDS011;44883;52.760;6.610;2022-07-21T12:06:15;22.55;;;20.35;;
59097;SDS011;44883;52.760;6.610;2022-07-21T12:08:43;20.20;;;18.40;;
59097;SDS011;44883;52.760;6.610;2022-07-21T12:11:09;20.88;;;18.85;;
59097;SDS011;44883;52.760;6.610;2022-07-21T12:13:56;21.92;;;19.85;;
59097;SDS011;44883;52.760;6.610;2022-07-21T12:16:26;17.65;;;16.05;;
59097;SDS011;44883;52.760;6.610;2022-07-21T12:19:10;18.67;;;16.83;;
59097;SDS011;44883;52.760;6.610;2022-07-21T12:21:46;18.48;;;16.67;;
59097;SDS011;44883;52.760;6.610;2022-07-21T12:24:20;21.42;;;19.42;;
59097;SDS011;44883;52.760;6.610;2022-07-21T12:26:48;22.02;;;20.02;;
59097;SDS011;44883;52.760;6.610;2022-07-21T12:29:29;20.98;;;19.08;;
59097;SDS011;44883;52.760;6.610;2022-07-21T12:31:55;18.77;;;17.08;;
59097;SDS011;44883;52.760;6.610;2022-07-21T12:34:21;18.52;;;16.73;;
59097;SDS011;44883;52.760;6.610;2022-07-21T12:36:49;17.70;;;16.05;;
59097;SDS011;44883;52.760;6.610;2022-07-21T12:39:25;16.13;;;14.63;;
59097;SDS011;44883;52.760;6.610;2022-07-21T12:42:11;14.50;;;13.15;;
59097;SDS011;44883;52.760;6.610;2022-07-21T12:44:52;16.65;;;15.05;;
59097;SDS011;44883;52.760;6.610;2022-07-21T12:47:18;17.17;;;15.57;;
59097;SDS011;44883;52.760;6.610;2022-07-21T12:52:25;19.27;;;17.38;;
59097;SDS011;44883;52.760;6.610;2022-07-21T12:54:51;18.02;;;16.33;;
59097;SDS011;44883;52.760;6.610;2022-07-21T12:57:17;17.73;;;16.02;;
59097;SDS011;44883;52.760;6.610;2022-07-21T12:59:43;18.58;;;16.77;;
59097;SDS011;44883;52.760;6.610;2022-07-21T13:02:09;16.83;;;15.13;;
59097;SDS011;44883;52.760;6.610;2022-07-21T13:04:34;15.88;;;14.38;;
59097;SDS011;44883;52.760;6.610;2022-07-21T13:07:00;15.70;;;14.20;;
59097;SDS011;44883;52.760;6.610;2022-07-21T13:09:26;15.57;;;14.18;;
59097;SDS011;44883;52.760;6.610;2022-07-21T13:11:51;14.88;;;13.52;;
59097;SDS011;44883;52.760;6.610;2022-07-21T13:14:17;14.10;;;12.70;;
59097;SDS011;44883;52.760;6.610;2022-07-21T13:16:42;15.32;;;13.82;;
59097;SDS011;44883;52.760;6.610;2022-07-21T13:19:08;15.07;;;13.57;;
59097;SDS011;44883;52.760;6.610;2022-07-21T13:21:33;14.90;;;13.45;;
59097;SDS011;44883;52.760;6.610;2022-07-21T13:23:59;14.95;;;13.55;;
59097;SDS011;44883;52.760;6.610;2022-07-21T13:26:25;15.68;;;14.18;;
59097;SDS011;44883;52.760;6.610;2022-07-21T13:28:50;17.17;;;15.57;;
59097;SDS011;44883;52.760;6.610;2022-07-21T13:31:16;15.43;;;13.88;;
59097;SDS011;44883;52.760;6.610;2022-07-21T13:33:42;14.00;;;12.70;;
59097;SDS011;44883;52.760;6.610;2022-07-21T13:36:08;14.45;;;13.15;;
59097;SDS011;44883;52.760;6.610;2022-07-21T13:38:34;14.45;;;13.10;;
59097;SDS011;44883;52.760;6.610;2022-07-21T13:41:00;14.32;;;12.90;;
59097;SDS011;44883;52.760;6.610;2022-07-21T13:43:26;13.38;;;12.02;;
59097;SDS011;44883;52.760;6.610;2022-07-21T13:45:51;13.50;;;12.20;;
59097;SDS011;44883;52.760;6.610;2022-07-21T13:48:17;11.90;;;10.70;;
59097;SDS011;44883;52.760;6.610;2022-07-21T13:50:42;13.52;;;12.23;;
59097;SDS011;44883;52.760;6.610;2022-07-21T13:53:08;13.70;;;12.40;;
59097;SDS011;44883;52.760;6.610;2022-07-21T13:55:34;14.13;;;12.82;;
59097;SDS011;44883;52.760;6.610;2022-07-21T13:57:59;14.93;;;13.52;;
59097;SDS011;44883;52.760;6.610;2022-07-21T14:00:25;13.20;;;11.98;;
59097;SDS011;44883;52.760;6.610;2022-07-21T14:02:51;13.55;;;12.25;;
59097;SDS011;44883;52.760;6.610;2022-07-21T14:05:17;13.10;;;11.88;;
59097;SDS011;44883;52.760;6.610;2022-07-21T14:07:42;11.20;;;10.10;;
59097;SDS011;44883;52.760;6.610;2022-07-21T14:10:08;10.77;;;9.68;;
59097;SDS011;44883;52.760;6.610;2022-07-21T14:12:34;11.07;;;9.98;;
59097;SDS011;44883;52.760;6.610;2022-07-21T14:15:00;10.30;;;9.30;;
59097;SDS011;44883;52.760;6.610;2022-07-21T14:17:26;10.68;;;9.57;;
59097;SDS011;44883;52.760;6.610;2022-07-21T14:19:51;9.90;;;8.90;;
59097;SDS011;44883;52.760;6.610;2022-07-21T14:22:17;8.45;;;7.65;;
59097;SDS011;44883;52.760;6.610;2022-07-21T14:24:44;8.00;;;7.20;;
59097;SDS011;44883;52.760;6.610;2022-07-21T14:27:28;7.85;;;6.90;;
59097;SDS011;44883;52.760;6.610;2022-07-21T14:29:54;7.63;;;6.93;;
59097;SDS011;44883;52.760;6.610;2022-07-21T14:32:20;7.70;;;6.90;;
59097;SDS011;44883;52.760;6.610;2022-07-21T14:34:54;7.85;;;7.05;;
59097;SDS011;44883;52.760;6.610;2022-07-21T14:37:19;6.63;;;5.88;;
59097;SDS011;44883;52.760;6.610;2022-07-21T14:39:46;7.93;;;5.50;;
59097;SDS011;44883;52.760;6.610;2022-07-21T14:42:12;6.40;;;5.43;;
59097;SDS011;44883;52.760;6.610;2022-07-21T14:44:38;5.90;;;4.95;;
59097;SDS011;44883;52.760;6.610;2022-07-21T14:47:04;6.47;;;5.30;;
59097;SDS011;44883;52.760;6.610;2022-07-21T14:49:31;6.10;;;5.38;;
59097;SDS011;44883;52.760;6.610;2022-07-21T14:51:57;6.70;;;5.93;;
59097;SDS011;44883;52.760;6.610;2022-07-21T14:54:23;7.10;;;5.57;;